createdAt,value
2023-05-22T00:01:39.107Z,21.78
2023-05-22T00:04:05.724Z,21.78
2023-05-22T00:06:34.157Z,21.78
2023-05-22T00:09:00.881Z,21.78
2023-05-22T00:11:27.584Z,21.78
2023-05-22T00:13:54.168Z,21.78
2023-05-22T00:16:20.801Z,21.78
2023-05-22T00:18:47.521Z,21.77
2023-05-22T00:21:14.350Z,21.78
2023-05-22T00:23:41.555Z,21.78
2023-05-22T00:26:08.125Z,21.78
2023-05-22T00:28:34.675Z,21.77
2023-05-22T00:31:01.197Z,21.77
2023-05-22T00:33:27.817Z,21.77
2023-05-22T00:35:54.382Z,21.76
2023-05-22T00:38:32.821Z,21.74
2023-05-22T00:41:04.560Z,21.75
2023-05-22T00:43:31.529Z,21.74
2023-05-22T00:45:58.385Z,21.73
2023-05-22T00:48:25.617Z,21.73
2023-05-22T00:50:54.584Z,21.73
2023-05-22T00:53:22.736Z,21.73
2023-05-22T00:55:49.729Z,21.72
2023-05-22T00:58:19.216Z,21.69
2023-05-22T01:00:46.844Z,21.69
2023-05-22T01:03:14.641Z,21.67
2023-05-22T01:05:41.975Z,21.67
2023-05-22T01:08:09.505Z,21.67
2023-05-22T01:10:38.017Z,21.66
2023-05-22T01:13:21.014Z,21.64
2023-05-22T01:15:57.305Z,21.64
2023-05-22T01:18:32.140Z,21.63
2023-05-22T01:21:23.868Z,21.61
2023-05-22T01:24:11.789Z,21.62
2023-05-22T01:27:05.715Z,21.61
2023-05-22T01:29:43.028Z,21.61
2023-05-22T01:32:13.154Z,21.61
2023-05-22T01:34:42.639Z,21.60
2023-05-22T01:37:10.067Z,21.57
2023-05-22T01:39:38.087Z,21.57
2023-05-22T01:42:05.997Z,21.57
2023-05-22T01:44:32.543Z,21.57
2023-05-22T01:47:04.919Z,21.55
2023-05-22T01:49:36.120Z,21.56
2023-05-22T01:52:09.938Z,21.55
2023-05-22T01:59:56.261Z,21.54
2023-05-22T02:02:24.622Z,21.55
2023-05-22T02:05:02.075Z,21.52
2023-05-22T02:07:30.893Z,21.52
2023-05-22T02:09:58.514Z,21.50
2023-05-22T02:12:25.458Z,21.51
2023-05-22T02:14:52.415Z,21.50
2023-05-22T02:17:19.049Z,21.49
2023-05-22T02:19:45.857Z,21.48
2023-05-22T02:22:15.547Z,21.48
2023-05-22T02:24:44.172Z,21.47
2023-05-22T02:27:10.863Z,21.46
2023-05-22T02:29:37.738Z,21.45
2023-05-22T02:32:04.926Z,21.45
2023-05-22T02:34:31.763Z,21.44
2023-05-22T02:37:04.310Z,21.43
2023-05-22T02:39:30.918Z,21.42
2023-05-22T02:41:57.488Z,21.42
2023-05-22T02:44:24.072Z,21.42
2023-05-22T02:46:50.686Z,21.41
2023-05-22T02:49:17.259Z,21.40
2023-05-22T02:51:47.580Z,21.40
2023-05-22T02:54:15.730Z,21.39
2023-05-22T02:56:45.495Z,21.39
2023-05-22T02:59:12.067Z,21.38
2023-05-22T03:01:39.689Z,21.38
2023-05-22T03:04:09.414Z,21.37
2023-05-22T03:06:37.165Z,21.36
2023-05-22T03:09:04.389Z,21.36
2023-05-22T03:11:31.757Z,21.35
2023-05-22T03:13:58.784Z,21.35
2023-05-22T03:16:26.532Z,21.34
2023-05-22T03:19:10.319Z,21.31
2023-05-22T03:21:37.257Z,21.34
2023-05-22T03:24:04.364Z,21.32
2023-05-22T03:26:31.233Z,21.32
2023-05-22T03:28:58.012Z,21.32
2023-05-22T03:31:26.176Z,21.32
2023-05-22T03:33:52.936Z,21.30
2023-05-22T03:36:21.426Z,21.31
2023-05-22T03:38:47.999Z,21.30
2023-05-22T03:41:14.641Z,21.30
2023-05-22T03:43:42.714Z,21.29
2023-05-22T03:46:11.425Z,21.29
2023-05-22T03:48:38.999Z,21.29
2023-05-22T03:51:06.160Z,21.29
2023-05-22T03:53:32.803Z,21.28
2023-05-22T03:55:59.480Z,21.27
2023-05-22T03:58:26.198Z,21.27
2023-05-22T04:00:58.602Z,21.26
2023-05-22T04:03:25.341Z,21.25
2023-05-22T04:05:52.118Z,21.26
2023-05-22T04:08:19.048Z,21.25
2023-05-22T04:10:46.748Z,21.24
2023-05-22T04:13:13.763Z,21.24
2023-05-22T04:15:41.722Z,21.24
2023-05-22T04:18:08.559Z,21.25
2023-05-22T04:20:35.706Z,21.21
2023-05-22T04:23:02.312Z,21.21
2023-05-22T04:25:30.135Z,21.21
2023-05-22T04:27:56.728Z,21.20
2023-05-22T04:30:25.669Z,21.20
2023-05-22T04:32:52.390Z,21.21
2023-05-22T04:35:19.605Z,21.22
2023-05-22T04:37:46.321Z,21.21
2023-05-22T04:40:15.127Z,21.23
2023-05-22T04:42:42.466Z,21.24
2023-05-22T04:45:09.955Z,21.25
2023-05-22T04:47:38.257Z,21.27
2023-05-22T04:50:05.288Z,21.28
2023-05-22T04:52:31.833Z,21.28
2023-05-22T04:55:00.010Z,21.29
2023-05-22T04:57:27.568Z,21.29
2023-05-22T04:59:54.431Z,21.31
2023-05-22T05:02:21.000Z,21.32
2023-05-22T05:04:48.316Z,21.33
2023-05-22T05:07:17.580Z,21.34
2023-05-22T05:09:44.382Z,21.35
2023-05-22T05:12:10.952Z,21.37
2023-05-22T05:14:37.481Z,21.38
2023-05-22T05:17:04.665Z,21.40
2023-05-22T05:19:31.819Z,21.40
2023-05-22T05:21:59.011Z,21.43
2023-05-22T05:24:25.636Z,21.44
2023-05-22T05:26:52.564Z,21.46
2023-05-22T05:29:19.137Z,21.48
2023-05-22T05:31:45.771Z,21.49
2023-05-22T05:34:13.491Z,21.51
2023-05-22T05:36:41.127Z,21.52
2023-05-22T05:41:34.125Z,21.56
2023-05-22T05:44:01.491Z,21.57
2023-05-22T05:46:28.140Z,21.58
2023-05-22T05:48:54.800Z,21.60
2023-05-22T05:51:22.195Z,21.62
2023-05-22T05:53:49.261Z,21.62
2023-05-22T05:56:15.963Z,21.64
2023-05-22T05:58:42.666Z,21.65
2023-05-22T06:01:09.367Z,21.67
2023-05-22T06:03:36.317Z,21.68
2023-05-22T06:06:03.464Z,21.70
2023-05-22T06:08:32.256Z,21.72
2023-05-22T06:10:58.982Z,21.73
2023-05-22T06:13:25.636Z,21.73
2023-05-22T06:15:52.389Z,21.76
2023-05-22T06:18:19.124Z,21.77
2023-05-22T06:20:45.878Z,21.78
2023-05-22T06:23:12.543Z,21.79
2023-05-22T06:25:39.938Z,21.81
2023-05-22T06:28:06.644Z,21.81
2023-05-22T06:30:39.992Z,21.82
2023-05-22T06:33:07.894Z,21.83
2023-05-22T06:35:34.569Z,21.85
2023-05-22T06:38:01.187Z,21.85
2023-05-22T06:40:27.959Z,21.88
2023-05-22T06:42:54.547Z,21.89
2023-05-22T06:45:21.183Z,21.89
2023-05-22T06:47:52.963Z,21.90
2023-05-22T06:50:20.889Z,21.91
2023-05-22T06:52:47.987Z,21.90
2023-05-22T06:55:15.044Z,21.90
2023-05-22T06:57:41.600Z,21.92
2023-05-22T07:00:09.723Z,21.92
2023-05-22T07:02:36.344Z,21.94
2023-05-22T07:05:03.013Z,21.94
2023-05-22T07:07:29.680Z,21.94
2023-05-22T07:09:56.242Z,21.94
2023-05-22T07:12:26.038Z,21.95
2023-05-22T07:14:53.466Z,21.96
2023-05-22T07:17:21.667Z,21.97
2023-05-22T07:19:49.002Z,21.98
2023-05-22T07:22:15.786Z,21.97
2023-05-22T07:24:42.486Z,21.98
2023-05-22T07:27:09.346Z,21.98
2023-05-22T07:29:36.277Z,21.99
2023-05-22T07:32:03.178Z,22.01
2023-05-22T07:34:34.132Z,22.01
2023-05-22T07:37:01.363Z,22.01
2023-05-22T07:39:27.981Z,22.01
2023-05-22T07:41:55.362Z,22.02
2023-05-22T07:44:23.507Z,22.02
2023-05-22T07:46:50.136Z,22.03
2023-05-22T07:49:19.616Z,22.04
2023-05-22T07:51:46.888Z,22.04
2023-05-22T07:54:14.294Z,22.05
2023-05-22T07:56:41.656Z,22.05
2023-05-22T07:59:11.092Z,22.06
2023-05-22T08:01:42.002Z,22.07
2023-05-22T08:04:08.960Z,22.07
2023-05-22T08:06:35.958Z,22.07
2023-05-22T08:09:02.947Z,22.08
2023-05-22T08:11:29.553Z,22.09
2023-05-22T08:13:56.340Z,22.09
2023-05-22T08:16:23.308Z,22.10
2023-05-22T08:18:50.489Z,22.10
2023-05-22T08:21:17.189Z,22.11
2023-05-22T08:23:43.804Z,22.11
2023-05-22T08:26:10.409Z,22.13
2023-05-22T08:28:37.515Z,22.14
2023-05-22T08:31:04.266Z,22.13
2023-05-22T08:33:30.827Z,22.16
2023-05-22T08:35:57.392Z,22.16
2023-05-22T08:38:24.000Z,22.16
2023-05-22T08:40:53.558Z,22.17
2023-05-22T08:43:21.417Z,22.17
2023-05-22T08:45:57.822Z,22.19
2023-05-22T08:48:24.962Z,22.18
2023-05-22T08:51:00.107Z,22.21
2023-05-22T08:53:28.858Z,22.22
2023-05-22T08:55:56.504Z,22.22
2023-05-22T08:58:23.748Z,22.24
2023-05-22T09:00:50.891Z,22.23
2023-05-22T09:03:18.504Z,22.25
2023-05-22T09:05:45.407Z,22.27
2023-05-22T09:08:19.825Z,22.28
2023-05-22T09:10:47.387Z,22.30
2023-05-22T09:13:24.651Z,22.31
2023-05-22T09:15:51.269Z,22.34
2023-05-22T09:18:17.819Z,22.33
2023-05-22T09:20:44.478Z,22.36
2023-05-22T09:23:17.644Z,22.38
2023-05-22T09:25:44.913Z,22.41
2023-05-22T09:28:12.635Z,22.43
2023-05-22T09:30:40.525Z,22.46
2023-05-22T09:33:09.203Z,22.50
2023-05-22T09:35:39.100Z,22.54
2023-05-22T09:38:06.398Z,22.59
2023-05-22T09:40:34.957Z,22.63
2023-05-22T09:43:06.521Z,22.66
2023-05-22T09:45:36.096Z,22.72
2023-05-22T09:48:04.084Z,22.76
2023-05-22T09:50:30.719Z,22.79
2023-05-22T09:53:01.584Z,22.83
2023-05-22T09:55:28.669Z,22.87
2023-05-22T09:57:56.762Z,22.90
2023-05-22T10:00:25.006Z,22.94
2023-05-22T10:03:09.547Z,22.97
2023-05-22T10:05:38.090Z,23.02
2023-05-22T10:08:14.293Z,23.05
2023-05-22T10:10:43.298Z,23.08
2023-05-22T10:13:11.039Z,23.11
2023-05-22T10:15:38.382Z,23.14
2023-05-22T10:18:05.822Z,23.15
2023-05-22T10:20:32.912Z,23.17
2023-05-22T10:23:02.837Z,23.15
2023-05-22T10:25:30.613Z,23.15
2023-05-22T10:27:59.449Z,23.16
2023-05-22T10:30:39.789Z,23.18
2023-05-22T10:33:09.371Z,23.21
2023-05-22T10:35:41.282Z,23.23
2023-05-22T10:38:49.650Z,23.23
2023-05-22T10:41:16.953Z,23.30
2023-05-22T10:43:44.158Z,23.32
2023-05-22T10:46:13.259Z,23.34
2023-05-22T10:48:45.377Z,23.35
2023-05-22T10:51:19.490Z,23.38
2023-05-22T10:53:53.275Z,23.40
2023-05-22T10:56:21.259Z,23.43
2023-05-22T10:59:08.315Z,23.44
2023-05-22T11:01:38.080Z,23.48
2023-05-22T11:04:06.797Z,23.52
2023-05-22T11:06:43.318Z,23.53
2023-05-22T11:09:18.975Z,23.54
2023-05-22T11:11:46.846Z,23.57
2023-05-22T11:14:17.582Z,23.56
2023-05-22T11:16:44.396Z,23.57
2023-05-22T11:19:22.776Z,23.57
2023-05-22T11:21:50.636Z,23.59
2023-05-22T11:24:20.134Z,23.59
2023-05-22T11:27:02.380Z,23.59
2023-05-22T11:29:29.462Z,23.62
2023-05-22T11:31:58.007Z,23.62
2023-05-22T11:34:25.516Z,23.64
2023-05-22T11:37:02.034Z,23.67
2023-05-22T11:39:28.607Z,23.70
2023-05-22T11:41:55.402Z,23.72
2023-05-22T11:44:22.048Z,23.75
2023-05-22T11:46:48.727Z,23.76
2023-05-22T11:49:15.652Z,23.79
2023-05-22T11:51:42.224Z,23.81
2023-05-22T11:54:08.802Z,23.85
2023-05-22T11:56:35.340Z,23.86
2023-05-22T11:59:02.219Z,23.88
2023-05-22T12:01:28.845Z,23.91
2023-05-22T12:03:55.684Z,23.92
2023-05-22T12:06:22.509Z,23.95
2023-05-22T12:08:49.428Z,23.96
2023-05-22T12:11:16.727Z,23.97
2023-05-22T12:13:43.944Z,23.99
2023-05-22T12:16:22.739Z,24.00
2023-05-22T12:18:53.810Z,24.01
2023-05-22T12:21:20.866Z,24.03
2023-05-22T12:23:50.082Z,24.03
2023-05-22T12:26:17.293Z,24.04
2023-05-22T12:28:44.581Z,24.07
2023-05-22T12:31:11.356Z,24.05
2023-05-22T12:33:39.517Z,24.06
2023-05-22T12:36:10.375Z,24.06
2023-05-22T12:38:39.196Z,24.07
2023-05-22T12:41:05.927Z,24.08
2023-05-22T12:43:32.840Z,24.06
2023-05-22T12:46:01.759Z,24.07
2023-05-22T12:48:29.192Z,24.08
2023-05-22T12:50:55.874Z,24.08
2023-05-22T12:53:22.433Z,24.08
2023-05-22T12:55:48.978Z,24.06
2023-05-22T12:58:15.630Z,24.07
2023-05-22T13:00:42.381Z,24.06
2023-05-22T13:03:09.355Z,24.05
2023-05-22T13:05:35.956Z,24.04
2023-05-22T13:08:02.512Z,24.03
2023-05-22T13:10:29.374Z,24.03
2023-05-22T13:12:56.028Z,24.02
2023-05-22T13:15:22.705Z,24.02
2023-05-22T13:17:49.332Z,24.03
2023-05-22T13:20:15.934Z,24.04
2023-05-22T13:22:42.726Z,24.02
2023-05-22T13:25:09.591Z,24.03
2023-05-22T13:27:36.181Z,24.03
2023-05-22T13:30:03.309Z,24.03
2023-05-22T13:32:30.197Z,24.04
2023-05-22T13:34:56.858Z,24.04
2023-05-22T13:37:23.817Z,24.05
2023-05-22T13:39:50.741Z,24.04
2023-05-22T13:42:17.549Z,24.03
2023-05-22T13:44:44.151Z,24.05
2023-05-22T13:47:10.806Z,24.06
2023-05-22T13:49:37.400Z,24.05
2023-05-22T13:52:04.015Z,24.05
2023-05-22T13:54:30.791Z,24.05
2023-05-22T13:57:02.252Z,24.06
2023-05-22T13:59:29.523Z,24.05
2023-05-22T14:01:56.190Z,24.06
2023-05-22T14:04:22.930Z,24.06
2023-05-22T14:06:49.650Z,24.06
2023-05-22T14:09:16.503Z,24.06
2023-05-22T14:11:43.123Z,24.07
2023-05-22T14:14:09.688Z,24.07
2023-05-22T14:16:36.261Z,24.06
2023-05-22T14:19:03.042Z,24.07
2023-05-22T14:21:31.362Z,24.07
2023-05-22T14:23:57.969Z,24.07
2023-05-22T14:26:24.590Z,24.06
2023-05-22T14:28:51.464Z,24.08
2023-05-22T14:31:18.103Z,24.07
2023-05-22T14:33:44.704Z,24.08
2023-05-22T14:36:11.296Z,24.08
2023-05-22T14:38:37.969Z,24.09
2023-05-22T14:41:04.528Z,24.08
2023-05-22T14:43:31.199Z,24.08
2023-05-22T14:45:59.214Z,24.09
2023-05-22T14:48:26.578Z,24.09
2023-05-22T14:50:56.184Z,24.09
2023-05-22T14:53:23.305Z,24.09
2023-05-22T14:55:49.947Z,24.10
2023-05-22T14:58:16.515Z,24.10
2023-05-22T15:00:43.120Z,24.10
2023-05-22T15:03:11.531Z,24.10
2023-05-22T15:05:38.364Z,24.10
2023-05-22T15:08:05.123Z,24.10
2023-05-22T15:10:31.795Z,24.10
2023-05-22T15:12:58.419Z,24.10
2023-05-22T15:15:25.131Z,24.10
2023-05-22T15:17:51.734Z,24.12
2023-05-22T15:20:18.468Z,24.11
2023-05-22T15:22:45.049Z,24.11
2023-05-22T15:25:15.082Z,24.11
2023-05-22T15:27:42.230Z,24.13
2023-05-22T15:30:09.847Z,24.12
2023-05-22T15:32:37.252Z,24.13
2023-05-22T15:35:05.603Z,24.12
2023-05-22T15:37:34.283Z,24.14
2023-05-22T15:40:01.951Z,24.13
2023-05-22T15:42:28.830Z,24.14
2023-05-22T15:44:55.867Z,24.14
2023-05-22T15:47:22.483Z,24.14
2023-05-22T15:49:49.069Z,24.14
2023-05-22T15:52:15.886Z,24.14
2023-05-22T15:54:42.579Z,24.16
2023-05-22T15:57:09.179Z,24.16
2023-05-22T15:59:36.447Z,24.16
2023-05-22T16:02:03.063Z,24.17
2023-05-22T16:04:29.625Z,24.17
2023-05-22T16:06:56.200Z,24.17
2023-05-22T16:09:22.775Z,24.17
2023-05-22T16:11:49.382Z,24.17
2023-05-22T16:14:15.969Z,24.18
2023-05-22T16:16:42.701Z,24.18
2023-05-22T16:19:11.333Z,24.18
2023-05-22T16:21:38.528Z,24.17
2023-05-22T16:24:06.877Z,24.18
2023-05-22T16:26:33.611Z,24.18
2023-05-22T16:29:00.509Z,24.18
2023-05-22T16:31:27.170Z,24.19
2023-05-22T16:33:53.750Z,24.19
2023-05-22T16:36:20.464Z,24.18
2023-05-22T16:38:47.028Z,24.18
2023-05-22T16:41:13.728Z,24.18
2023-05-22T16:43:40.371Z,24.19
2023-05-22T16:46:06.911Z,24.20
2023-05-22T16:48:33.478Z,24.19
2023-05-22T16:51:00.061Z,24.20
2023-05-22T16:53:26.770Z,24.20
2023-05-22T16:55:53.351Z,24.19
2023-05-22T16:58:20.124Z,24.20
2023-05-22T17:00:46.958Z,24.20
2023-05-22T17:03:14.202Z,24.20
2023-05-22T17:05:41.351Z,24.19
2023-05-22T17:08:08.171Z,24.19
2023-05-22T17:10:35.109Z,24.19
2023-05-22T17:13:01.720Z,24.19
2023-05-22T17:15:28.400Z,24.19
2023-05-22T17:17:55.106Z,24.19
2023-05-22T17:20:24.890Z,24.18
2023-05-22T17:22:52.409Z,24.18
2023-05-22T17:25:19.098Z,24.18
2023-05-22T17:27:46.517Z,24.18
2023-05-22T17:30:13.176Z,24.18
2023-05-22T17:32:39.960Z,24.19
2023-05-22T17:35:07.140Z,24.18
2023-05-22T17:37:34.253Z,24.19
2023-05-22T17:40:00.982Z,24.19
2023-05-22T17:42:27.609Z,24.18
2023-05-22T17:44:54.215Z,24.17
2023-05-22T17:47:20.813Z,24.17
2023-05-22T17:49:47.439Z,24.18
2023-05-22T17:52:14.384Z,24.18
2023-05-22T17:54:40.993Z,24.17
2023-05-22T17:57:07.760Z,24.18
2023-05-22T17:59:34.368Z,24.18
2023-05-22T18:02:01.203Z,24.17
2023-05-22T18:04:27.941Z,24.18
2023-05-22T18:06:54.548Z,24.17
2023-05-22T18:09:21.096Z,24.17
2023-05-22T18:11:47.689Z,24.18
2023-05-22T18:14:14.442Z,24.16
2023-05-22T18:16:40.986Z,24.17
2023-05-22T18:19:07.662Z,24.15
2023-05-22T18:21:34.302Z,24.15
2023-05-22T18:24:00.946Z,24.16
2023-05-22T18:26:27.513Z,24.16
2023-05-22T18:28:54.104Z,24.14
2023-05-22T18:31:20.752Z,24.14
2023-05-22T18:33:47.367Z,24.13
2023-05-22T18:36:14.000Z,24.13
2023-05-22T18:38:41.095Z,24.13
2023-05-22T18:41:07.897Z,24.13
2023-05-22T18:43:34.592Z,24.12
2023-05-22T18:46:01.294Z,24.12
2023-05-22T18:48:28.372Z,24.12
2023-05-22T18:50:57.373Z,24.12
2023-05-22T18:53:25.285Z,24.12
2023-05-22T18:55:52.595Z,24.11
2023-05-22T18:58:19.492Z,24.12
2023-05-22T19:00:46.255Z,24.11
2023-05-22T19:03:14.066Z,24.10
2023-05-22T19:05:41.114Z,24.11
2023-05-22T19:08:07.674Z,24.09
2023-05-22T19:10:34.356Z,24.08
2023-05-22T19:13:00.961Z,24.09
2023-05-22T19:15:27.631Z,24.08
2023-05-22T19:17:54.203Z,24.09
2023-05-22T19:20:22.457Z,24.07
2023-05-22T19:22:50.884Z,24.07
2023-05-22T19:25:17.780Z,24.06
2023-05-22T19:27:44.722Z,24.06
2023-05-22T19:30:11.667Z,24.07
2023-05-22T19:32:38.310Z,24.06
2023-05-22T19:35:05.179Z,24.05
2023-05-22T19:37:31.794Z,24.05
2023-05-22T19:39:58.351Z,24.04
2023-05-22T19:42:24.912Z,24.05
2023-05-22T19:44:51.510Z,24.02
2023-05-22T19:47:18.124Z,24.02
2023-05-22T19:49:44.713Z,24.00
2023-05-22T19:52:11.304Z,23.99
2023-05-22T19:54:37.920Z,23.98
2023-05-22T19:57:04.613Z,23.96
2023-05-22T19:59:31.220Z,23.94
2023-05-22T20:01:57.837Z,23.93
2023-05-22T20:04:24.432Z,23.92
2023-05-22T20:06:51.009Z,23.89
2023-05-22T20:09:17.604Z,23.88
2023-05-22T20:11:44.200Z,23.86
2023-05-22T20:14:12.181Z,23.84
2023-05-22T20:16:38.823Z,23.81
2023-05-22T20:19:05.463Z,23.80
2023-05-22T20:21:32.125Z,23.78
2023-05-22T20:23:59.244Z,23.76
2023-05-22T20:26:26.100Z,23.74
2023-05-22T20:28:52.657Z,23.71
2023-05-22T20:31:19.294Z,23.70
2023-05-22T20:33:46.017Z,23.67
2023-05-22T20:36:14.927Z,23.66
2023-05-22T20:38:42.571Z,23.64
2023-05-22T20:41:09.911Z,23.62
2023-05-22T20:43:36.656Z,23.60
2023-05-22T20:46:03.315Z,23.58
2023-05-22T20:48:29.940Z,23.57
2023-05-22T20:50:56.611Z,23.56
2023-05-22T20:53:24.484Z,23.54
2023-05-22T20:55:53.284Z,23.52
2023-05-22T20:58:20.078Z,23.51
2023-05-22T21:00:49.391Z,23.48
2023-05-22T21:03:16.997Z,23.47
2023-05-22T21:05:43.612Z,23.47
2023-05-22T21:08:10.247Z,23.45
2023-05-22T21:10:36.804Z,23.43
2023-05-22T21:13:03.513Z,23.43
2023-05-22T21:15:30.141Z,23.42
2023-05-22T21:17:56.764Z,23.39
2023-05-22T21:20:23.447Z,23.39
2023-05-22T21:22:50.081Z,23.38
2023-05-22T21:25:16.702Z,23.35
2023-05-22T21:27:43.296Z,23.33
2023-05-22T21:30:12.635Z,23.33
2023-05-22T21:32:39.228Z,23.31
2023-05-22T21:35:06.326Z,23.29
2023-05-22T21:37:32.902Z,23.26
2023-05-22T21:39:59.451Z,23.25
2023-05-22T21:42:26.361Z,23.25
2023-05-22T21:44:52.998Z,23.23
2023-05-22T21:47:19.685Z,23.21
2023-05-22T21:49:46.444Z,23.19
2023-05-22T21:52:13.211Z,23.18
2023-05-22T21:54:39.785Z,23.17
2023-05-22T21:57:06.702Z,23.15
2023-05-22T21:59:33.600Z,23.12
2023-05-22T22:02:00.347Z,23.10
2023-05-22T22:04:26.929Z,23.09
2023-05-22T22:06:53.527Z,23.08
2023-05-22T22:09:20.125Z,23.06
2023-05-22T22:11:48.584Z,23.05
2023-05-22T22:14:15.150Z,23.02
2023-05-22T22:16:44.351Z,23.00
2023-05-22T22:19:11.625Z,22.98
2023-05-22T22:21:38.529Z,22.98
2023-05-22T22:24:05.263Z,22.95
2023-05-22T22:26:32.356Z,22.94
2023-05-22T22:28:59.121Z,22.93
2023-05-22T22:31:26.309Z,22.92
2023-05-22T22:33:52.977Z,22.89
2023-05-22T22:36:19.531Z,22.89
2023-05-22T22:38:46.087Z,22.86
2023-05-22T22:41:12.694Z,22.87
2023-05-22T22:43:39.276Z,22.86
2023-05-22T22:46:06.050Z,22.84
2023-05-22T22:48:33.764Z,22.82
2023-05-22T22:51:00.594Z,22.83
2023-05-22T22:53:27.214Z,22.82
2023-05-22T22:55:59.431Z,22.80
2023-05-22T22:58:26.087Z,22.79
2023-05-22T23:00:53.046Z,22.79
2023-05-22T23:03:19.902Z,22.79
2023-05-22T23:05:46.707Z,22.78
2023-05-22T23:08:13.446Z,22.77
2023-05-22T23:10:40.056Z,22.76
2023-05-22T23:13:06.825Z,22.75
2023-05-22T23:15:34.014Z,22.72
2023-05-22T23:18:00.816Z,22.73
2023-05-22T23:20:27.430Z,22.71
2023-05-22T23:22:54.073Z,22.70
2023-05-22T23:25:20.699Z,22.68
2023-05-22T23:27:47.307Z,22.68
2023-05-22T23:30:13.920Z,22.65
2023-05-22T23:32:40.653Z,22.64
2023-05-22T23:35:09.537Z,22.62
2023-05-22T23:37:36.178Z,22.61
2023-05-22T23:40:02.830Z,22.60
2023-05-22T23:42:29.484Z,22.60
2023-05-22T23:44:56.233Z,22.58
2023-05-22T23:47:22.879Z,22.59
2023-05-22T23:49:49.552Z,22.58
2023-05-22T23:52:16.240Z,22.56
2023-05-22T23:54:42.830Z,22.57
2023-05-22T23:57:10.479Z,22.57
2023-05-22T23:59:37.204Z,22.57
